Time;durP1;ratioP1;P1;durP2;ratioP2;P2;SDS_P1;SDS_P2;PMS_P1;PMS_P2;Temp;Humidity;BMP_temperature;BMP_pressure;BME280_temperature;BME280_humidity;BME280_pressure;Samples;Min_cycle;Max_cycle;Signal;HPM_P1;HPM_P2
2022/04/01 00:01:40;;;;;;;;;;;;;;;17.57;60.39;99234.63;5039726;28;1656;-59
2022/04/01 00:04:08;;;;;;;;;;;;;;;17.56;60.41;99249.78;5043618;28;1589;-52
2022/04/01 00:06:34;;;;;;;;;;;;;;;17.59;59.24;99248.66;5035614;28;1906;-53
2022/04/01 00:09:00;;;;;;;;;;;;;;;17.53;60.21;99251.94;5033448;28;1728;-52
2022/04/01 00:11:27;;;;;;;;;;;;;;;17.54;59.97;99250.97;5037684;28;1418;-53
2022/04/01 00:13:54;;;;;;;;;;;;;;;17.56;60.17;99251.63;5040267;28;1483;-53
2022/04/01 00:16:20;;;;;;;;;;;;;;;17.54;59.68;99259.81;5039995;28;1484;-59
2022/04/01 00:18:47;;;;;;;;;;;;;;;17.54;60.17;99254.47;5041114;28;1389;-60
2022/04/01 00:21:15;;;;;;;;;;;;;;;17.54;60.22;99253.63;5036826;28;1374;-59
2022/04/01 00:23:41;;;;;;;;;;;;;;;17.53;60.24;99247.47;5040576;28;1657;-53
2022/04/01 00:26:09;;;;;;;;;;;;;;;17.52;60.50;99247.63;5046702;28;1977;-59
2022/04/01 00:28:35;;;;;;;;;;;;;;;17.49;60.10;99236.25;5047441;28;1425;-59
2022/04/01 00:31:02;;;;;;;;;;;;;;;17.53;60.23;99230.56;5037682;28;1418;-53
2022/04/01 00:33:28;;;;;;;;;;;;;;;17.48;60.25;99215.88;5047580;28;1594;-59
2022/04/01 00:35:55;;;;;;;;;;;;;;;17.50;59.86;99227.22;5045250;28;1577;-59
2022/04/01 00:38:23;;;;;;;;;;;;;;;17.50;60.06;99234.41;5043274;28;1871;-59
2022/04/01 00:40:51;;;;;;;;;;;;;;;17.46;60.50;99225.88;5047303;28;1365;-53
2022/04/01 00:43:18;;;;;;;;;;;;;;;17.50;60.47;99232.56;5045563;28;1381;-59
2022/04/01 00:45:44;;;;;;;;;;;;;;;17.50;60.27;99227.22;5043895;28;1979;-59
2022/04/01 00:48:11;;;;;;;;;;;;;;;17.52;60.44;99236.94;5044918;28;1414;-53
2022/04/01 00:50:37;;;;;;;;;;;;;;;17.52;60.65;99256.47;5048719;28;999;-59
2022/04/01 00:53:04;;;;;;;;;;;;;;;17.51;60.37;99254.81;5050825;28;1794;-54
2022/04/01 00:55:32;;;;;;;;;;;;;;;17.53;60.16;99268.00;5046027;28;1659;-59
2022/04/01 00:57:58;;;;;;;;;;;;;;;17.52;59.82;99269.00;5035709;28;1631;-59
2022/04/01 01:00:27;;;;;;;;;;;;;;;17.52;60.22;99267.16;5041919;28;1366;-58
2022/04/01 01:02:55;;;;;;;;;;;;;;;17.57;61.32;99261.34;5047392;28;1440;-53
2022/04/01 01:05:22;;;;;;;;;;;;;;;17.62;61.99;99253.66;5048227;28;1884;-53
2022/04/01 01:07:48;;;;;;;;;;;;;;;17.75;61.17;99242.50;5039107;28;1359;-59
2022/04/01 01:10:16;;;;;;;;;;;;;;;17.95;60.50;99245.75;5047983;28;1538;-53
2022/04/01 01:12:45;;;;;;;;;;;;;;;17.94;60.34;99254.75;5048445;28;1605;-59
2022/04/01 01:15:13;;;;;;;;;;;;;;;17.94;60.67;99242.22;5044397;28;1370;-53
2022/04/01 01:17:40;;;;;;;;;;;;;;;17.96;60.89;99247.41;5046326;28;1413;-59
2022/04/01 01:20:12;;;;;;;;;;;;;;;18.05;61.01;99243.75;5045615;28;1873;-59
2022/04/01 01:22:39;;;;;;;;;;;;;;;18.14;60.86;99220.50;5052722;28;1567;-59
2022/04/01 01:25:08;;;;;;;;;;;;;;;18.35;59.81;99214.63;5044675;28;1906;-59
2022/04/01 01:27:35;;;;;;;;;;;;;;;18.63;59.62;99202.53;5046988;28;1584;-53
2022/04/01 01:30:02;;;;;;;;;;;;;;;18.86;59.09;99183.91;5040816;28;1172;-53
2022/04/01 01:32:29;;;;;;;;;;;;;;;19.06;57.60;99181.66;5048959;28;1774;-59
2022/04/01 01:34:56;;;;;;;;;;;;;;;18.96;57.96;99213.19;5047095;28;1787;-54
2022/04/01 01:37:23;;;;;;;;;;;;;;;18.99;58.22;99204.78;5038228;28;1271;-53
2022/04/01 01:39:50;;;;;;;;;;;;;;;19.20;57.12;99192.63;5045516;28;1588;-60
2022/04/01 01:42:18;;;;;;;;;;;;;;;19.22;57.49;99185.28;5037751;28;1291;-60
2022/04/01 01:44:45;;;;;;;;;;;;;;;19.10;57.86;99168.75;5046570;28;1057;-53
2022/04/01 01:47:12;;;;;;;;;;;;;;;19.06;58.30;99152.19;5045206;28;1902;-60
2022/04/01 01:54:42;;;;;;;;;;;;;;;19.02;57.75;99148.19;5044156;28;1531;-59
2022/04/01 01:55:09;;;;;;;;;;;;;;;19.00;57.69;99146.69;5044142;28;1651;-59
2022/04/01 01:57:37;;;;;;;;;;;;;;;19.13;57.53;99144.28;5033459;28;1282;-59
2022/04/01 02:00:10;;;;;;;;;;;;;;;19.14;57.29;99126.34;5046831;28;1108;-54
2022/04/01 02:02:37;;;;;;;;;;;;;;;19.20;57.29;99136.34;5043818;28;1656;-53
2022/04/01 02:05:04;;;;;;;;;;;;;;;19.28;57.71;99149.72;5049074;28;1898;-60
2022/04/01 02:07:30;;;;;;;;;;;;;;;19.25;57.46;99131.31;5040834;28;1636;-59
2022/04/01 02:09:57;;;;;;;;;;;;;;;19.36;57.07;99133.59;5045628;28;1369;-53
2022/04/01 02:12:24;;;;;;;;;;;;;;;19.33;57.30;99136.63;5041345;28;1394;-59
2022/04/01 02:14:52;;;;;;;;;;;;;;;19.38;56.88;99147.66;5041998;28;1607;-55
2022/04/01 02:17:18;;;;;;;;;;;;;;;19.34;57.08;99130.25;5043334;28;1044;-59
2022/04/01 02:19:45;;;;;;;;;;;;;;;19.28;56.93;99131.78;5048028;28;1711;-53
2022/04/01 02:22:12;;;;;;;;;;;;;;;19.38;57.62;99128.88;5025979;28;1423;-53
2022/04/01 02:24:39;;;;;;;;;;;;;;;19.27;58.18;99114.03;5045463;28;1581;-53
2022/04/01 02:27:06;;;;;;;;;;;;;;;19.43;57.27;99122.97;5046372;28;1910;-59
2022/04/01 02:29:32;;;;;;;;;;;;;;;19.34;57.63;99121.38;5037782;28;1585;-53
2022/04/01 02:32:00;;;;;;;;;;;;;;;19.41;56.80;99104.41;5044956;28;1628;-59
2022/04/01 02:34:27;;;;;;;;;;;;;;;19.41;56.98;99103.56;5045646;28;1613;-59
2022/04/01 02:36:56;;;;;;;;;;;;;;;19.35;57.64;99099.75;5044903;28;1228;-59
2022/04/01 02:39:22;;;;;;;;;;;;;;;19.40;58.26;99101.91;5046261;28;1732;-60
2022/04/01 02:41:49;;;;;;;;;;;;;;;19.42;57.97;99111.44;5041145;28;1728;-59
2022/04/01 02:44:16;;;;;;;;;;;;;;;19.50;57.90;99125.78;5045649;28;1425;-60
2022/04/01 02:46:44;;;;;;;;;;;;;;;19.39;58.02;99119.00;5044486;28;1949;-59
2022/04/01 02:49:14;;;;;;;;;;;;;;;19.39;58.17;99111.78;5042805;28;1381;-59
2022/04/01 02:51:42;;;;;;;;;;;;;;;19.41;57.55;99100.88;5033700;28;1867;-58
2022/04/01 02:54:09;;;;;;;;;;;;;;;19.35;57.18;99093.56;5041365;28;1579;-59
2022/04/01 02:56:36;;;;;;;;;;;;;;;19.45;57.88;99103.03;5042684;28;1527;-53
2022/04/01 02:59:06;;;;;;;;;;;;;;;19.54;57.44;99097.63;5039927;28;1336;-59
2022/04/01 03:01:33;;;;;;;;;;;;;;;19.60;56.98;99091.53;5046721;28;1573;-53
2022/04/01 03:04:00;;;;;;;;;;;;;;;19.63;57.46;99101.88;5044242;28;1525;-59
2022/04/01 03:06:28;;;;;;;;;;;;;;;19.55;57.69;99110.00;5053734;28;1975;-53
2022/04/01 03:08:55;;;;;;;;;;;;;;;19.63;57.29;99123.34;5048135;28;1628;-59
2022/04/01 03:11:21;;;;;;;;;;;;;;;19.47;57.85;99125.13;5044180;28;1616;-59
2022/04/01 03:13:48;;;;;;;;;;;;;;;19.50;57.81;99123.09;5043834;28;1466;-53
2022/04/01 03:16:14;;;;;;;;;;;;;;;19.66;57.71;99131.88;5044175;28;1581;-53
2022/04/01 03:18:41;;;;;;;;;;;;;;;19.52;57.71;99115.72;5044034;28;1573;-53
2022/04/01 03:21:09;;;;;;;;;;;;;;;19.59;57.82;99106.78;5031146;28;1229;-53
2022/04/01 03:23:41;;;;;;;;;;;;;;;19.39;57.69;99095.69;5037884;28;1716;-59
2022/04/01 03:26:07;;;;;;;;;;;;;;;19.54;57.63;99119.06;5043917;28;1914;-59
2022/04/01 03:28:34;;;;;;;;;;;;;;;19.63;57.29;99109.94;5043638;28;1624;-59
2022/04/01 03:31:03;;;;;;;;;;;;;;;19.56;56.67;99112.50;5043395;28;1374;-53
2022/04/01 03:33:30;;;;;;;;;;;;;;;19.67;56.68;99124.66;5043433;28;1623;-53
2022/04/01 03:35:57;;;;;;;;;;;;;;;19.61;57.31;99128.03;5041714;28;1173;-59
2022/04/01 03:38:23;;;;;;;;;;;;;;;19.64;57.43;99131.22;5047863;28;1790;-59
2022/04/01 03:40:52;;;;;;;;;;;;;;;19.63;56.64;99123.34;5043596;28;1593;-59
2022/04/01 03:43:21;;;;;;;;;;;;;;;19.68;56.19;99123.66;5043939;28;1862;-53
2022/04/01 03:45:48;;;;;;;;;;;;;;;19.51;58.07;99125.59;5044857;28;1906;-60
2022/04/01 03:48:18;;;;;;;;;;;;;;;19.56;57.92;99128.59;5047893;28;1274;-59
2022/04/01 03:50:49;;;;;;;;;;;;;;;19.62;57.84;99127.06;5046263;28;1873;-53
2022/04/01 03:53:17;;;;;;;;;;;;;;;19.74;56.56;99114.09;5052061;28;1715;-53
2022/04/01 03:55:47;;;;;;;;;;;;;;;19.39;57.83;99125.19;5047692;28;1577;-53
2022/04/01 03:58:16;;;;;;;;;;;;;;;18.99;59.38;99121.75;5049994;28;1361;-53
2022/04/01 04:00:43;;;;;;;;;;;;;;;18.72;59.17;99108.78;5048178;28;1568;-59
2022/04/01 04:03:11;;;;;;;;;;;;;;;18.64;58.70;99129.25;5047317;28;1458;-53
2022/04/01 04:05:38;;;;;;;;;;;;;;;18.53;58.78;99118.06;5044050;28;1874;-53
2022/04/01 04:08:05;;;;;;;;;;;;;;;18.48;58.62;99135.50;5051667;28;1984;-53
2022/04/01 04:10:34;;;;;;;;;;;;;;;18.40;59.08;99137.34;5047471;28;1513;-59
2022/04/01 04:13:01;;;;;;;;;;;;;;;18.38;59.00;99128.63;5041231;28;1057;-53
2022/04/01 04:15:30;;;;;;;;;;;;;;;18.33;59.76;99126.50;5050597;28;1656;-55
2022/04/01 04:17:59;;;;;;;;;;;;;;;18.28;59.54;99129.69;5048923;28;1736;-59
2022/04/01 04:20:33;;;;;;;;;;;;;;;18.26;59.27;99133.50;5042752;28;1582;-60
2022/04/01 04:23:04;;;;;;;;;;;;;;;18.26;59.86;99139.72;5043344;28;1349;-53
2022/04/01 04:25:34;;;;;;;;;;;;;;;18.22;59.56;99124.16;5044937;28;1580;-54
2022/04/01 04:28:01;;;;;;;;;;;;;;;18.20;58.94;99132.34;5039393;28;1902;-53
2022/04/01 04:30:32;;;;;;;;;;;;;;;18.19;60.65;99137.91;5038780;28;1304;-54
2022/04/01 04:33:04;;;;;;;;;;;;;;;18.13;60.13;99128.72;5042366;28;1406;-53
2022/04/01 04:35:30;;;;;;;;;;;;;;;18.16;60.01;99146.25;5036113;28;1313;-53
2022/04/01 04:37:58;;;;;;;;;;;;;;;18.16;60.46;99131.03;5035594;28;1284;-59
2022/04/01 04:40:25;;;;;;;;;;;;;;;18.16;60.32;99147.06;5039630;28;1199;-58
2022/04/01 04:42:53;;;;;;;;;;;;;;;18.15;60.07;99144.59;5035175;28;1393;-53
2022/04/01 04:45:21;;;;;;;;;;;;;;;18.13;60.43;99155.44;5044256;28;1362;-54
2022/04/01 04:47:50;;;;;;;;;;;;;;;18.13;60.01;99147.44;5046446;28;1906;-54
2022/04/01 04:50:17;;;;;;;;;;;;;;;18.12;60.06;99152.94;5041754;28;1244;-55
2022/04/01 04:52:45;;;;;;;;;;;;;;;18.11;60.22;99136.06;5051828;28;1620;-60
2022/04/01 04:55:13;;;;;;;;;;;;;;;18.16;60.30;99138.22;5048658;28;1581;-59
2022/04/01 04:57:42;;;;;;;;;;;;;;;18.19;60.26;99137.91;5047779;28;1593;-52
2022/04/01 05:00:10;;;;;;;;;;;;;;;18.15;59.53;99132.03;5040781;28;982;-58
2022/04/01 05:02:42;;;;;;;;;;;;;;;18.11;60.76;99128.03;5043765;28;1439;-59
2022/04/01 05:05:15;;;;;;;;;;;;;;;18.02;60.75;99137.06;5042127;28;1966;-59
2022/04/01 05:07:49;;;;;;;;;;;;;;;18.04;59.74;99137.72;5052309;28;1910;-53
2022/04/01 05:10:18;;;;;;;;;;;;;;;18.04;59.64;99138.56;5048433;28;1644;-53
2022/04/01 05:12:49;;;;;;;;;;;;;;;18.03;60.04;99128.06;5048071;28;1533;-58
2022/04/01 05:15:20;;;;;;;;;;;;;;;18.07;60.36;99129.38;5044672;28;1397;-58
2022/04/01 05:17:53;;;;;;;;;;;;;;;18.08;60.54;99136.38;5042570;28;1342;-52
2022/04/01 05:20:24;;;;;;;;;;;;;;;18.06;60.11;99125.03;5042680;28;1229;-58
2022/04/01 05:23:00;;;;;;;;;;;;;;;18.03;59.87;99138.75;5041442;28;1532;-53
2022/04/01 05:25:28;;;;;;;;;;;;;;;18.04;59.29;99121.69;5036068;28;1564;-53
2022/04/01 05:27:59;;;;;;;;;;;;;;;18.06;58.75;99122.34;5043246;28;1968;-59
2022/04/01 05:30:29;;;;;;;;;;;;;;;18.06;59.27;99125.88;5048546;28;1363;-59
2022/04/01 05:32:58;;;;;;;;;;;;;;;18.07;59.82;99126.72;5042188;28;1434;-58
2022/04/01 05:35:27;;;;;;;;;;;;;;;18.06;59.49;99125.03;5044717;28;1032;-59
2022/04/01 05:37:54;;;;;;;;;;;;;;;18.06;60.00;99115.19;5050632;28;1714;-53
2022/04/01 05:40:22;;;;;;;;;;;;;;;18.07;60.33;99130.22;5034624;28;1607;-59
2022/04/01 05:42:49;;;;;;;;;;;;;;;18.07;60.06;99118.69;5042921;28;1493;-53
2022/04/01 05:45:16;;;;;;;;;;;;;;;18.11;59.60;99122.69;5046396;28;1664;-52
2022/04/01 05:47:44;;;;;;;;;;;;;;;18.08;60.20;99129.22;5046284;28;1906;-58
2022/04/01 05:50:11;;;;;;;;;;;;;;;18.10;60.63;99126.34;5047155;28;1248;-60
2022/04/01 05:52:40;;;;;;;;;;;;;;;18.10;60.23;99121.00;5038737;28;1795;-53
2022/04/01 05:55:11;;;;;;;;;;;;;;;18.12;60.71;99137.72;5046573;28;1409;-59
2022/04/01 05:57:38;;;;;;;;;;;;;;;18.13;60.52;99125.19;5044367;28;1358;-54
2022/04/01 06:00:05;;;;;;;;;;;;;;;18.15;60.91;99134.72;5046700;28;1036;-58
2022/04/01 06:02:37;;;;;;;;;;;;;;;18.16;61.25;99128.34;5043034;28;1411;-52
2022/04/01 06:05:13;;;;;;;;;;;;;;;18.19;61.16;99130.69;5049226;28;1783;-53
2022/04/01 06:07:45;;;;;;;;;;;;;;;18.22;60.71;99141.06;5038582;28;1906;-55
2022/04/01 06:10:17;;;;;;;;;;;;;;;18.21;60.59;99128.69;5044488;28;1530;-59
2022/04/01 06:12:50;;;;;;;;;;;;;;;18.22;60.57;99141.06;5044886;28;1640;-58
2022/04/01 06:15:19;;;;;;;;;;;;;;;18.24;60.83;99133.72;5045679;28;1592;-54
2022/04/01 06:17:51;;;;;;;;;;;;;;;18.23;60.61;99126.66;5045311;28;1284;-58
2022/04/01 06:20:21;;;;;;;;;;;;;;;18.23;61.14;99137.38;5045490;28;1036;-53
2022/04/01 06:22:51;;;;;;;;;;;;;;;18.24;61.02;99117.66;5050408;28;1727;-53
2022/04/01 06:25:20;;;;;;;;;;;;;;;18.22;60.88;99135.72;5045525;28;1577;-58
2022/04/01 06:27:48;;;;;;;;;;;;;;;18.22;60.63;99098.25;5042854;28;1972;-59
2022/04/01 06:30:15;;;;;;;;;;;;;;;18.25;60.49;99113.13;5047701;28;1454;-53
2022/04/01 06:32:49;;;;;;;;;;;;;;;18.24;60.77;99108.78;5046613;28;977;-53
2022/04/01 06:35:19;;;;;;;;;;;;;;;18.33;61.09;99112.28;5044302;28;1998;-54
2022/04/01 06:37:50;;;;;;;;;;;;;;;18.36;60.97;99119.94;5040827;28;1343;-58
2022/04/01 06:40:22;;;;;;;;;;;;;;;18.44;60.68;99111.91;5035964;28;1224;-62
2022/04/01 06:42:51;;;;;;;;;;;;;;;18.42;60.69;99098.72;5043926;28;1572;-55
2022/04/01 06:45:18;;;;;;;;;;;;;;;18.49;60.41;99096.16;5043653;28;1373;-60
2022/04/01 06:47:45;;;;;;;;;;;;;;;18.48;60.95;99094.47;5047867;28;1973;-49
2022/04/01 06:50:12;;;;;;;;;;;;;;;18.48;60.83;99084.63;5042650;28;1291;-56
2022/04/01 06:52:39;;;;;;;;;;;;;;;18.53;60.65;99089.44;5044005;28;1406;-65
2022/04/01 06:55:09;;;;;;;;;;;;;;;18.57;60.15;99098.81;5049297;28;1471;-66
2022/04/01 06:57:37;;;;;;;;;;;;;;;18.63;60.56;99098.09;5042980;28;1407;-65
2022/04/01 07:00:05;;;;;;;;;;;;;;;18.77;60.04;99101.06;5045435;28;1241;-54
2022/04/01 07:02:32;;;;;;;;;;;;;;;18.80;59.94;99103.41;5041271;28;1455;-55
2022/04/01 07:04:58;;;;;;;;;;;;;;;18.74;60.67;99096.06;5047686;28;1810;-53
2022/04/01 07:07:25;;;;;;;;;;;;;;;18.74;59.87;99082.66;5052543;28;1906;-57
2022/04/01 07:09:52;;;;;;;;;;;;;;;18.72;61.15;99082.00;5047879;28;1259;-56
2022/04/01 07:12:18;;;;;;;;;;;;;;;18.69;60.94;99092.06;5033297;28;1379;-66
2022/04/01 07:14:46;;;;;;;;;;;;;;;18.77;60.54;99093.03;5041715;28;1454;-56
2022/04/01 07:17:13;;;;;;;;;;;;;;;18.75;60.26;99103.09;5033933;28;1475;-56
2022/04/01 07:19:39;;;;;;;;;;;;;;;18.69;61.14;99080.53;5042205;28;1683;-56
2022/04/01 07:22:06;;;;;;;;;;;;;;;18.72;60.25;99095.38;5052361;28;1675;-66
2022/04/01 07:24:33;;;;;;;;;;;;;;;18.65;61.56;99088.06;5038585;28;1448;-56
2022/04/01 07:27:00;;;;;;;;;;;;;;;18.64;61.47;99083.72;5041740;28;1979;-67
2022/04/01 07:29:27;;;;;;;;;;;;;;;18.65;61.43;99077.34;5041211;28;1978;-57
2022/04/01 07:34:40;;;;;;;;;;;;;;;18.69;59.65;99093.91;5044116;28;1616;-70
2022/04/01 07:37:07;;;;;;;;;;;;;;;18.54;59.63;99091.09;5036857;28;1362;-57
2022/04/01 07:39:34;;;;;;;;;;;;;;;18.58;60.04;99089.78;5033272;28;1443;-55
2022/04/01 07:42:00;;;;;;;;;;;;;;;18.62;59.15;99096.47;5033165;28;1264;-68
2022/04/01 07:44:27;;;;;;;;;;;;;;;18.67;59.03;99075.34;5047608;28;1723;-59
2022/04/01 07:46:55;;;;;;;;;;;;;;;18.77;59.48;99091.19;5040639;28;1977;-57
2022/04/01 07:49:22;;;;;;;;;;;;;;;18.73;58.90;99094.41;5037242;28;1462;-59
2022/04/01 07:51:49;;;;;;;;;;;;;;;18.68;59.42;99076.16;5037738;28;1342;-66
2022/04/01 07:54:16;;;;;;;;;;;;;;;18.79;60.33;99072.28;5040683;28;2113;-59
2022/04/01 07:56:42;;;;;;;;;;;;;;;18.77;59.55;99085.00;5038359;28;1555;-59
2022/04/01 07:59:10;;;;;;;;;;;;;;;18.74;60.58;99083.53;5046731;28;1604;-59
2022/04/01 08:01:37;;;;;;;;;;;;;;;18.74;59.43;99098.72;5040469;28;1357;-58
2022/04/01 08:04:05;;;;;;;;;;;;;;;18.78;60.11;99094.69;5041431;28;1584;-60
2022/04/01 08:06:31;;;;;;;;;;;;;;;18.80;59.93;99090.03;5047313;28;1283;-63
2022/04/01 08:08:58;;;;;;;;;;;;;;;18.86;58.38;99097.34;5031123;28;1971;-59
2022/04/01 08:11:25;;;;;;;;;;;;;;;18.97;56.33;99091.63;5027364;28;1415;-63
2022/04/01 08:13:51;;;;;;;;;;;;;;;19.03;54.40;99098.94;5044559;28;1588;-63
2022/04/01 08:16:18;;;;;;;;;;;;;;;18.97;53.74;99093.47;5039579;28;1501;-63
2022/04/01 08:18:45;;;;;;;;;;;;;;;18.88;53.88;99073.94;5043241;28;1569;-62
2022/04/01 08:21:13;;;;;;;;;;;;;;;18.87;54.12;99074.94;5040571;28;1055;-59
2022/04/01 08:23:39;;;;;;;;;;;;;;;18.87;54.92;99051.66;5039431;28;1292;-63
2022/04/01 08:26:07;;;;;;;;;;;;;;;18.83;53.33;99041.47;5045472;28;1576;-63
2022/04/01 08:28:33;;;;;;;;;;;;;;;18.87;51.55;99051.66;5043230;28;1971;-63
2022/04/01 08:31:00;;;;;;;;;;;;;;;18.81;52.29;99036.28;5044606;28;1444;-63
2022/04/01 08:33:26;;;;;;;;;;;;;;;18.81;52.99;99027.44;5043140;28;1592;-63
2022/04/01 08:35:53;;;;;;;;;;;;;;;18.81;52.09;99043.50;5045581;28;1099;-59
2022/04/01 08:38:21;;;;;;;;;;;;;;;18.85;51.56;99050.19;5043059;28;1371;-62
2022/04/01 08:40:48;;;;;;;;;;;;;;;18.92;50.69;99048.47;5046353;28;1588;-59
2022/04/01 08:43:23;;;;;;;;;;;;;;;18.93;50.29;99036.72;5049664;28;1216;-59
2022/04/01 08:45:50;;;;;;;;;;;;;;;18.86;50.87;99044.66;5036754;28;1588;-58
2022/04/01 08:48:16;;;;;;;;;;;;;;;18.82;51.14;99026.41;5048586;28;1902;-62
2022/04/01 08:50:43;;;;;;;;;;;;;;;18.82;50.86;99039.81;5048451;28;1047;-62
2022/04/01 08:53:09;;;;;;;;;;;;;;;18.75;52.20;99023.59;5050873;28;1708;-59
2022/04/01 08:55:37;;;;;;;;;;;;;;;18.77;52.89;99021.56;5049061;28;1189;-59
2022/04/01 08:58:04;;;;;;;;;;;;;;;18.85;52.34;99034.94;5044092;28;1592;-58
2022/04/01 09:00:34;;;;;;;;;;;;;;;18.92;51.09;99037.75;5047063;28;1429;-59
2022/04/01 09:03:02;;;;;;;;;;;;;;;18.88;51.10;98996.28;5045484;28;1548;-63
2022/04/01 09:05:29;;;;;;;;;;;;;;;18.91;50.04;99011.97;5045818;28;1069;-59
2022/04/01 09:07:59;;;;;;;;;;;;;;;18.89;50.75;99008.63;5027516;28;1901;-64
2022/04/01 09:10:26;;;;;;;;;;;;;;;18.96;50.54;98993.53;5045157;28;1417;-59
2022/04/01 09:12:53;;;;;;;;;;;;;;;19.05;50.29;98997.81;5038090;28;1435;-63
2022/04/01 09:15:20;;;;;;;;;;;;;;;19.18;50.02;99020.47;5045921;28;1486;-62
2022/04/01 09:17:48;;;;;;;;;;;;;;;19.21;51.57;98998.69;5032677;28;1455;-60
2022/04/01 09:20:15;;;;;;;;;;;;;;;19.26;52.43;99026.63;5040802;28;1275;-62
2022/04/01 09:22:43;;;;;;;;;;;;;;;19.30;52.22;98991.41;5038909;28;1351;-62
2022/04/01 09:25:10;;;;;;;;;;;;;;;19.25;52.28;99021.44;5045031;28;1255;-63
2022/04/01 09:27:38;;;;;;;;;;;;;;;19.24;52.75;98990.31;5047156;28;1910;-56
2022/04/01 09:30:08;;;;;;;;;;;;;;;19.21;52.35;98985.28;5045135;28;1864;-56
2022/04/01 09:32:38;;;;;;;;;;;;;;;19.28;53.26;99013.06;5035905;28;1746;-58
2022/04/01 09:35:06;;;;;;;;;;;;;;;19.30;53.26;98994.94;5050050;28;1758;-64
2022/04/01 09:37:39;;;;;;;;;;;;;;;19.23;52.69;98991.31;5038303;28;1716;-62
2022/04/01 09:40:07;;;;;;;;;;;;;;;19.20;54.01;98989.81;5040731;28;1459;-61
2022/04/01 09:42:33;;;;;;;;;;;;;;;19.15;54.00;98980.66;5045415;28;1458;-58
2022/04/01 09:45:00;;;;;;;;;;;;;;;19.18;53.65;98986.50;5049706;28;1427;-58
2022/04/01 09:47:35;;;;;;;;;;;;;;;19.10;53.92;98997.28;5046130;28;1973;-58
2022/04/01 09:50:04;;;;;;;;;;;;;;;19.07;54.29;98978.88;5031969;28;1427;-62
2022/04/01 09:52:36;;;;;;;;;;;;;;;19.10;53.53;98972.31;5035352;28;1454;-62
2022/04/01 09:55:03;;;;;;;;;;;;;;;19.10;53.17;98978.53;5033798;28;1272;-58
2022/04/01 09:57:30;;;;;;;;;;;;;;;19.15;52.93;98980.66;5045451;28;1145;-58
2022/04/01 09:59:57;;;;;;;;;;;;;;;19.13;53.42;98994.22;5036187;28;1988;-58
2022/04/01 10:11:35;;;;;;;;;;;;;;;19.24;53.34;98958.97;5036558;28;1515;-58
2022/04/01 10:14:03;;;;;;;;;;;;;;;19.30;52.14;98965.47;5048900;28;1374;-61
2022/04/01 10:16:31;;;;;;;;;;;;;;;19.22;52.52;98955.66;5037537;28;1450;-58
2022/04/01 10:19:00;;;;;;;;;;;;;;;19.18;53.00;98964.19;5034773;28;1494;-58
2022/04/01 10:21:27;;;;;;;;;;;;;;;19.16;52.85;98947.47;5038181;28;1327;-61
2022/04/01 10:23:56;;;;;;;;;;;;;;;19.11;52.19;98960.59;5040130;28;1540;-58
2022/04/01 10:26:23;;;;;;;;;;;;;;;19.13;51.85;98947.84;5041311;28;1256;-58
2022/04/01 10:28:52;;;;;;;;;;;;;;;19.16;51.51;98939.44;5039519;28;1902;-63
2022/04/01 10:31:20;;;;;;;;;;;;;;;19.24;52.07;98969.69;5046227;28;1347;-58
2022/04/01 10:33:47;;;;;;;;;;;;;;;19.25;51.80;98933.00;5037143;28;1438;-58
2022/04/01 10:36:17;;;;;;;;;;;;;;;19.29;52.60;98926.25;5043407;28;1415;-60
2022/04/01 10:38:48;;;;;;;;;;;;;;;19.33;52.31;98924.88;5040283;28;1515;-56
2022/04/01 10:41:15;;;;;;;;;;;;;;;19.36;52.58;98919.16;5039970;28;1323;-60
2022/04/01 10:43:43;;;;;;;;;;;;;;;19.24;52.44;98915.28;5043873;28;1187;-57
2022/04/01 10:46:12;;;;;;;;;;;;;;;19.24;53.35;98891.16;5038171;28;1366;-59
2022/04/01 10:51:39;;;;;;;;;;;;;;;19.39;53.50;98918.78;5041967;28;1273;-59
2022/04/01 10:54:21;;;;;;;;;;;;;;;19.30;53.35;98911.88;5048027;28;1758;-55
2022/04/01 10:56:56;;;;;;;;;;;;;;;19.26;53.55;98918.59;5045603;28;1792;-56
2022/04/01 10:59:23;;;;;;;;;;;;;;;19.25;52.89;98909.72;5046115;28;1779;-59
2022/04/01 11:02:08;;;;;;;;;;;;;;;19.27;52.59;98872.03;5032873;28;1477;-60
2022/04/01 11:04:36;;;;;;;;;;;;;;;19.19;53.30;98888.19;5039300;28;1303;-60
2022/04/01 11:07:03;;;;;;;;;;;;;;;19.13;53.29;98870.97;5050366;28;1465;-60
2022/04/01 11:09:34;;;;;;;;;;;;;;;19.16;52.98;98901.94;5031782;28;1910;-59
2022/04/01 11:12:19;;;;;;;;;;;;;;;19.23;52.68;98873.41;5036918;28;1233;-55
2022/04/01 11:15:07;;;;;;;;;;;;;;;19.22;53.01;98864.53;5036227;28;1261;-59
2022/04/01 11:17:49;;;;;;;;;;;;;;;19.13;53.28;98867.47;5035009;28;1251;-59
2022/04/01 11:20:27;;;;;;;;;;;;;;;19.08;53.71;98874.22;5036865;28;1335;-55
2022/04/01 11:23:00;;;;;;;;;;;;;;;19.11;53.44;98869.50;5029889;28;1426;-59
2022/04/01 11:25:44;;;;;;;;;;;;;;;19.06;53.26;98835.25;5033571;28;1451;-56
2022/04/01 11:28:12;;;;;;;;;;;;;;;19.16;53.52;98861.75;5027436;28;2084;-59
2022/04/01 11:30:44;;;;;;;;;;;;;;;19.15;53.83;98841.34;5039656;28;1386;-56
2022/04/01 11:33:11;;;;;;;;;;;;;;;19.12;53.79;98850.56;5034881;28;1370;-59
2022/04/01 11:35:40;;;;;;;;;;;;;;;19.17;53.46;98866.09;5037827;28;1368;-59
2022/04/01 11:38:07;;;;;;;;;;;;;;;19.16;53.67;98840.31;5026887;28;1403;-55
2022/04/01 11:40:36;;;;;;;;;;;;;;;19.11;54.58;98818.59;5031178;28;1427;-58
2022/04/01 11:43:03;;;;;;;;;;;;;;;19.10;54.38;98809.75;5039387;28;1319;-60
2022/04/01 11:45:31;;;;;;;;;;;;;;;19.11;54.14;98823.97;5038132;28;1425;-60
2022/04/01 11:47:58;;;;;;;;;;;;;;;19.14;54.62;98820.91;5041427;28;1485;-56
2022/04/01 11:50:25;;;;;;;;;;;;;;;19.15;54.48;98806.50;5029954;28;1971;-58
2022/04/01 11:52:54;;;;;;;;;;;;;;;19.13;55.23;98825.44;5033782;28;1401;-60
2022/04/01 11:55:22;;;;;;;;;;;;;;;19.11;55.06;98786.47;5038943;28;1264;-60
2022/04/01 11:57:49;;;;;;;;;;;;;;;19.12;55.25;98806.84;5039883;28;1288;-60
2022/04/01 12:00:17;;;;;;;;;;;;;;;19.22;54.29;98810.94;5044157;28;1259;-56
2022/04/01 12:02:45;;;;;;;;;;;;;;;19.17;54.46;98796.44;5045223;28;1443;-58
2022/04/01 12:05:12;;;;;;;;;;;;;;;19.13;54.35;98811.22;5037794;28;1739;-56
2022/04/01 12:10:24;;;;;;;;;;;;;;;19.10;54.03;98809.75;5033837;28;1919;-56
2022/04/01 12:12:55;;;;;;;;;;;;;;;19.04;55.84;98791.72;5043797;28;1433;-59
2022/04/01 12:15:30;;;;;;;;;;;;;;;18.99;54.68;98800.28;5048572;28;1458;-56
2022/04/01 12:17:56;;;;;;;;;;;;;;;18.94;55.49;98792.00;5037970;28;1271;-56
2022/04/01 12:20:23;;;;;;;;;;;;;;;18.91;55.20;98780.81;5048053;28;1095;-56
2022/04/01 12:22:51;;;;;;;;;;;;;;;18.94;55.32;98800.03;5040889;28;1507;-55
2022/04/01 12:25:19;;;;;;;;;;;;;;;18.91;54.44;98770.91;5049050;28;1330;-59
2022/04/01 12:27:57;;;;;;;;;;;;;;;18.95;55.23;98776.75;5050294;28;1414;-59
2022/04/01 12:30:27;;;;;;;;;;;;;;;18.98;55.08;98761.16;5038201;28;1977;-59
2022/04/01 12:32:54;;;;;;;;;;;;;;;19.00;54.14;98771.66;5043045;28;1509;-56
2022/04/01 12:35:22;;;;;;;;;;;;;;;18.98;54.10;98782.56;5046633;28;1332;-56
2022/04/01 12:38:01;;;;;;;;;;;;;;;19.02;54.87;98789.22;5038132;28;1228;-56
2022/04/01 12:40:28;;;;;;;;;;;;;;;19.00;55.26;98788.59;5047610;28;1978;-71
2022/04/01 12:42:56;;;;;;;;;;;;;;;19.07;54.68;98776.09;5046877;28;1383;-54
2022/04/01 12:45:22;;;;;;;;;;;;;;;19.04;55.46;98760.41;5046964;28;1314;-56
2022/04/01 12:47:49;;;;;;;;;;;;;;;19.05;55.58;98756.69;5041038;28;1255;-59
2022/04/01 12:50:30;;;;;;;;;;;;;;;19.16;55.61;98757.25;5045836;28;1906;-61
2022/04/01 12:53:08;;;;;;;;;;;;;;;18.76;56.51;98695.91;5035530;28;1483;-55
2022/04/01 12:55:34;;;;;;;;;;;;;;;19.18;56.67;98755.22;5049215;28;1436;-54
2022/04/01 12:58:04;;;;;;;;;;;;;;;19.20;56.14;98762.06;5042172;28;1438;-66
2022/04/01 13:00:30;;;;;;;;;;;;;;;19.18;56.57;98741.81;5046521;28;1366;-61
2022/04/01 13:03:01;;;;;;;;;;;;;;;19.08;57.16;98724.19;5045832;28;1387;-56
2022/04/01 13:05:28;;;;;;;;;;;;;;;19.10;57.18;98756.16;5045299;28;1024;-55
2022/04/01 13:07:54;;;;;;;;;;;;;;;19.18;55.15;98731.09;5053725;28;1460;-56
2022/04/01 13:10:23;;;;;;;;;;;;;;;19.27;54.97;98735.34;5036691;28;1906;-54
2022/04/01 13:12:51;;;;;;;;;;;;;;;19.16;55.32;98714.38;5034865;28;1372;-55
2022/04/01 13:15:20;;;;;;;;;;;;;;;19.08;55.91;98718.00;5046417;28;1365;-60
2022/04/01 13:17:49;;;;;;;;;;;;;;;19.00;55.12;98726.13;5046304;28;1509;-59
2022/04/01 13:20:17;;;;;;;;;;;;;;;18.96;55.60;98731.03;5043613;28;1060;-53
2022/04/01 13:22:45;;;;;;;;;;;;;;;18.89;56.11;98719.38;5052231;28;1739;-53
2022/04/01 13:25:13;;;;;;;;;;;;;;;18.90;55.88;98718.38;5047280;28;1222;-53